createdAt,value
2022-12-17T00:01:21.750Z,0.52
2022-12-17T00:04:07.047Z,0.61
2022-12-17T00:06:54.775Z,0.61
2022-12-17T00:09:43.601Z,0.69
2022-12-17T00:12:32.432Z,0.61
2022-12-17T00:15:17.722Z,0.67
2022-12-17T00:18:03.054Z,0.71
2022-12-17T00:20:49.155Z,0.74
2022-12-17T00:23:37.730Z,0.53
2022-12-17T00:26:23.718Z,0.69
2022-12-17T00:29:11.819Z,0.65
2022-12-17T00:31:57.563Z,0.42
2022-12-17T00:34:42.838Z,0.09
2022-12-17T00:37:31.173Z,0.11
2022-12-17T00:40:16.482Z,0.24
2022-12-17T00:43:01.631Z,0.52
2022-12-17T00:45:48.733Z,0.74
2022-12-17T00:48:37.109Z,0.55
2022-12-17T00:51:22.765Z,0.47
2022-12-17T00:54:08.101Z,0.56
2022-12-17T00:56:53.339Z,0.61
2022-12-17T00:59:41.900Z,0.84
2022-12-17T01:02:27.293Z,0.95
2022-12-17T01:05:13.039Z,1.16
2022-12-17T01:08:00.977Z,1.14
2022-12-17T01:10:46.486Z,1.15
2022-12-17T01:13:36.106Z,1.17
2022-12-17T01:16:31.382Z,1.04
2022-12-17T01:19:17.837Z,1.00
2022-12-17T01:22:06.204Z,0.97
2022-12-17T01:24:54.124Z,1.09
2022-12-17T01:27:44.150Z,1.15
2022-12-17T01:32:57.873Z,1.07
2022-12-17T01:35:43.697Z,0.94
2022-12-17T01:38:35.395Z,0.79
2022-12-17T01:41:22.052Z,0.65
2022-12-17T01:44:07.288Z,0.48
2022-12-17T01:47:00.029Z,0.57
2022-12-17T01:49:46.881Z,0.53
2022-12-17T01:52:35.030Z,0.65
2022-12-17T01:55:23.229Z,0.71
2022-12-17T01:58:09.226Z,0.70
2022-12-17T02:00:54.847Z,0.22
2022-12-17T02:03:42.495Z,0.41
2022-12-17T02:06:34.512Z,0.56
2022-12-17T02:09:26.696Z,0.64
2022-12-17T02:12:26.927Z,0.41
2022-12-17T02:15:37.125Z,0.18
2022-12-17T02:18:31.600Z,0.07
2022-12-17T02:21:19.490Z,0.37
2022-12-17T02:24:26.744Z,0.17
2022-12-17T02:27:18.143Z,0.31
2022-12-17T02:30:11.665Z,0.39
2022-12-17T02:33:00.881Z,0.47
2022-12-17T02:36:03.848Z,0.40
2022-12-17T02:38:50.915Z,0.20
2022-12-17T02:41:58.218Z,0.37
2022-12-17T02:44:45.146Z,0.36
2022-12-17T02:47:34.389Z,-0.08
2022-12-17T02:50:20.186Z,0.11
2022-12-17T02:53:07.425Z,0.29
2022-12-17T02:55:54.512Z,0.03
2022-12-17T02:58:40.284Z,0.14
2022-12-17T03:01:26.436Z,0.23
2022-12-17T03:04:11.673Z,0.52
2022-12-17T03:06:57.034Z,0.43
2022-12-17T03:09:42.934Z,0.55
2022-12-17T03:12:28.272Z,0.64
2022-12-17T03:15:13.827Z,0.62
2022-12-17T03:18:03.824Z,0.46
2022-12-17T03:20:48.958Z,0.39
2022-12-17T03:23:39.687Z,0.39
2022-12-17T03:26:25.532Z,0.44
2022-12-17T03:29:10.563Z,0.27
2022-12-17T03:31:56.525Z,0.25
2022-12-17T03:34:41.675Z,0.34
2022-12-17T03:37:27.346Z,0.64
2022-12-17T03:40:13.194Z,0.53
2022-12-17T03:43:01.105Z,0.40
2022-12-17T03:45:57.016Z,0.46
2022-12-17T03:48:44.989Z,0.41
2022-12-17T03:51:52.245Z,0.64
2022-12-17T03:54:37.888Z,0.67
2022-12-17T03:57:25.950Z,0.71
2022-12-17T04:00:11.294Z,0.70
2022-12-17T04:02:56.719Z,0.67
2022-12-17T04:05:42.067Z,0.58
2022-12-17T04:08:27.521Z,0.13
2022-12-17T04:11:12.941Z,0.04
2022-12-17T04:14:00.837Z,0.05
2022-12-17T04:16:48.824Z,0.05
2022-12-17T04:19:36.707Z,-0.02
2022-12-17T04:22:25.089Z,0.03
2022-12-17T04:25:10.215Z,0.01
2022-12-17T04:27:57.912Z,-0.02
2022-12-17T04:30:46.039Z,0.06
2022-12-17T04:33:37.669Z,-0.02
2022-12-17T04:36:23.587Z,-0.24
2022-12-17T04:39:09.341Z,-0.21
2022-12-17T04:41:57.303Z,-0.42
2022-12-17T04:44:42.979Z,-0.32
2022-12-17T04:47:28.278Z,-0.28
2022-12-17T04:50:14.060Z,-0.38
2022-12-17T04:53:01.897Z,-0.22
2022-12-17T04:55:47.290Z,-0.34
2022-12-17T04:58:35.535Z,-0.29
2022-12-17T05:01:20.753Z,-0.46
2022-12-17T05:04:06.353Z,-0.32
2022-12-17T05:06:52.053Z,-0.40
2022-12-17T05:09:39.767Z,-0.44
2022-12-17T05:12:25.167Z,-0.65
2022-12-17T05:15:10.733Z,-0.53
2022-12-17T05:17:57.169Z,-0.61
2022-12-17T05:20:47.901Z,-0.79
2022-12-17T05:23:33.691Z,-0.69
2022-12-17T05:26:26.368Z,-0.60
2022-12-17T05:29:15.818Z,-0.50
2022-12-17T05:32:01.466Z,-0.58
2022-12-17T05:34:46.761Z,-0.52
2022-12-17T05:37:32.230Z,-0.48
2022-12-17T05:40:17.584Z,-0.39
2022-12-17T05:43:18.818Z,-0.39
2022-12-17T05:46:05.590Z,-0.51
2022-12-17T05:48:52.068Z,-0.75
2022-12-17T05:51:40.416Z,-0.88
2022-12-17T05:54:26.510Z,-0.85
2022-12-17T05:57:12.605Z,-0.93
2022-12-17T05:59:57.887Z,-1.09
2022-12-17T06:02:43.657Z,-1.01
2022-12-17T06:05:30.531Z,-1.19
2022-12-17T06:08:46.846Z,-1.20
2022-12-17T06:11:32.472Z,-1.23
2022-12-17T06:14:17.585Z,-1.33
2022-12-17T06:17:03.195Z,-1.65
2022-12-17T06:19:48.676Z,-1.63
2022-12-17T06:22:34.159Z,-1.32
2022-12-17T06:25:19.522Z,-1.31
2022-12-17T06:28:04.743Z,-1.48
2022-12-17T06:30:50.174Z,-1.42
2022-12-17T06:33:36.301Z,-1.57
2022-12-17T06:36:23.049Z,-1.47
2022-12-17T06:39:09.826Z,-1.33
2022-12-17T06:42:02.159Z,-1.41
2022-12-17T06:44:49.758Z,-1.55
2022-12-17T06:47:35.741Z,-1.46
2022-12-17T06:50:21.404Z,-1.48
2022-12-17T06:53:06.714Z,-1.52
2022-12-17T06:55:52.430Z,-1.73
2022-12-17T06:58:40.226Z,-1.66
2022-12-17T07:01:25.718Z,-1.56
2022-12-17T07:04:10.910Z,-1.57
2022-12-17T07:06:56.430Z,-1.46
2022-12-17T07:09:41.711Z,-1.63
2022-12-17T07:12:29.512Z,-1.66
2022-12-17T07:15:28.783Z,-1.86
2022-12-17T07:18:21.273Z,-1.78
2022-12-17T07:21:12.459Z,-1.92
2022-12-17T07:24:00.994Z,-1.80
2022-12-17T07:26:49.573Z,-1.90
2022-12-17T07:29:51.676Z,-2.01
2022-12-17T07:32:39.657Z,-1.83
2022-12-17T07:35:26.118Z,-1.89
2022-12-17T07:38:24.132Z,-2.03
2022-12-17T07:41:09.973Z,-1.98
2022-12-17T07:43:55.308Z,-2.08
2022-12-17T07:46:43.049Z,-1.89
2022-12-17T07:49:30.926Z,-1.89
2022-12-17T07:52:16.440Z,-1.93
2022-12-17T07:55:01.749Z,-1.91
2022-12-17T07:57:49.533Z,-2.04
2022-12-17T08:00:35.356Z,-2.13
2022-12-17T08:03:21.216Z,-2.02
2022-12-17T08:06:06.558Z,-1.49
2022-12-17T08:08:54.544Z,-0.66
2022-12-17T08:11:40.079Z,-0.04
2022-12-17T08:14:25.626Z,1.00
2022-12-17T08:17:10.916Z,1.28
2022-12-17T08:19:56.255Z,1.40
2022-12-17T08:22:41.861Z,2.11
2022-12-17T08:25:29.403Z,2.88
2022-12-17T08:28:48.403Z,3.10
2022-12-17T08:31:23.144Z,3.70
2022-12-17T08:34:08.502Z,4.77
2022-12-17T08:36:53.695Z,5.55
2022-12-17T08:39:41.680Z,5.98
2022-12-17T08:42:27.024Z,5.84
2022-12-17T08:45:12.672Z,6.13
2022-12-17T08:48:03.605Z,6.72
2022-12-17T08:50:49.808Z,7.63
2022-12-17T08:53:37.855Z,7.58
2022-12-17T08:56:24.102Z,7.18
2022-12-17T08:59:09.962Z,7.37
2022-12-17T09:01:55.361Z,7.99
2022-12-17T09:04:40.927Z,8.28
2022-12-17T09:07:28.563Z,8.34
2022-12-17T09:10:13.904Z,8.80
2022-12-17T09:13:04.408Z,8.65
2022-12-17T09:15:50.590Z,9.16
2022-12-17T09:18:40.705Z,10.02
2022-12-17T09:21:27.096Z,10.06
2022-12-17T09:24:12.572Z,9.84
2022-12-17T09:26:58.355Z,9.66
2022-12-17T09:29:46.439Z,10.24
2022-12-17T09:32:31.866Z,11.10
2022-12-17T09:35:19.635Z,10.17
2022-12-17T09:38:24.815Z,10.79
2022-12-17T09:41:10.743Z,11.70
2022-12-17T09:44:13.859Z,12.39
2022-12-17T09:47:33.401Z,12.21
2022-12-17T09:50:25.679Z,13.68
2022-12-17T09:53:11.548Z,13.85
2022-12-17T09:56:09.094Z,14.40
2022-12-17T09:58:59.822Z,14.38
2022-12-17T10:01:53.855Z,14.65
2022-12-17T10:05:03.801Z,15.19
2022-12-17T10:07:57.505Z,15.98
2022-12-17T10:10:51.928Z,15.23
2022-12-17T10:13:41.445Z,14.89
2022-12-17T10:16:57.425Z,14.11
2022-12-17T10:19:55.879Z,14.00
2022-12-17T10:22:43.979Z,14.98
2022-12-17T10:25:41.486Z,16.48
2022-12-17T10:28:37.075Z,14.94
2022-12-17T10:31:49.606Z,9.95
2022-12-17T10:34:39.786Z,8.03
2022-12-17T10:37:37.187Z,6.53
2022-12-17T10:40:38.170Z,6.10
2022-12-17T10:43:41.811Z,5.11
2022-12-17T10:46:29.966Z,5.61
2022-12-17T10:49:42.211Z,8.19
2022-12-17T10:52:46.711Z,12.03
2022-12-17T10:55:46.989Z,12.94
2022-12-17T10:58:39.695Z,14.05
2022-12-17T11:01:30.167Z,15.10
2022-12-17T11:04:18.370Z,14.43
2022-12-17T11:07:07.752Z,15.55
2022-12-17T11:10:09.866Z,15.43
2022-12-17T11:13:02.556Z,15.08
2022-12-17T11:16:02.284Z,16.15
2022-12-17T11:19:29.332Z,18.20
2022-12-17T11:23:02.350Z,17.16
2022-12-17T11:26:31.597Z,16.60
2022-12-17T11:29:18.590Z,16.65
2022-12-17T11:32:45.196Z,18.06
2022-12-17T11:35:42.270Z,19.79
2022-12-17T11:38:48.658Z,19.72
2022-12-17T11:42:41.550Z,20.16
2022-12-17T11:45:47.627Z,19.07
2022-12-17T11:48:54.947Z,19.97
2022-12-17T11:52:15.771Z,18.25
2022-12-17T11:55:19.748Z,18.57
2022-12-17T11:58:23.291Z,19.41
2022-12-17T12:01:50.808Z,17.39
2022-12-17T12:05:05.956Z,16.23
2022-12-17T12:08:05.668Z,16.40
2022-12-17T12:11:20.047Z,17.46
2022-12-17T12:14:25.016Z,17.11
2022-12-17T12:17:35.986Z,17.26
2022-12-17T12:20:43.680Z,17.11
2022-12-17T12:23:48.748Z,16.12
2022-12-17T12:26:46.590Z,16.81
2022-12-17T12:29:59.365Z,17.86
2022-12-17T12:33:06.824Z,18.45
2022-12-17T12:35:58.959Z,16.87
2022-12-17T12:38:51.724Z,17.49
2022-12-17T12:41:52.727Z,17.15
2022-12-17T12:45:06.089Z,16.07
2022-12-17T12:48:28.418Z,16.52
2022-12-17T12:51:33.691Z,16.52
2022-12-17T12:54:49.342Z,16.64
2022-12-17T12:58:14.180Z,16.23
2022-12-17T13:01:12.926Z,14.79
2022-12-17T13:04:01.297Z,15.35
2022-12-17T13:06:46.890Z,15.79
2022-12-17T13:09:17.066Z,15.42
2022-12-17T13:12:02.885Z,15.10
2022-12-17T13:14:52.698Z,14.80
2022-12-17T13:17:27.873Z,15.22
2022-12-17T13:19:57.812Z,14.44
2022-12-17T13:22:24.912Z,14.77
2022-12-17T13:24:56.775Z,14.78
2022-12-17T13:27:35.581Z,14.19
2022-12-17T13:30:17.784Z,13.95
2022-12-17T13:33:13.735Z,14.54
2022-12-17T13:35:43.224Z,14.64
2022-12-17T13:38:39.385Z,13.74
2022-12-17T13:41:14.768Z,14.47
2022-12-17T13:43:51.125Z,15.23
2022-12-17T13:46:27.698Z,14.43
2022-12-17T13:49:00.268Z,13.36
2022-12-17T13:51:35.332Z,13.85
2022-12-17T13:54:05.967Z,14.08
2022-12-17T13:56:37.801Z,12.87
2022-12-17T13:59:09.144Z,12.89
2022-12-17T14:01:49.828Z,13.18
2022-12-17T14:04:28.822Z,13.43
2022-12-17T14:07:06.123Z,12.78
2022-12-17T14:09:40.350Z,11.49
2022-12-17T14:12:23.773Z,10.35
2022-12-17T14:15:01.520Z,8.65
2022-12-17T14:17:35.142Z,7.30
2022-12-17T14:20:10.670Z,7.10
2022-12-17T14:22:51.302Z,6.74
2022-12-17T14:25:23.535Z,6.03
2022-12-17T14:28:33.024Z,5.42
2022-12-17T14:31:28.600Z,5.30
2022-12-17T14:34:14.104Z,4.78
2022-12-17T14:36:43.953Z,4.84
2022-12-17T14:39:34.609Z,4.56
2022-12-17T14:42:26.425Z,4.48
2022-12-17T14:45:02.252Z,4.34
2022-12-17T14:47:38.513Z,4.03
2022-12-17T14:50:28.163Z,3.82
2022-12-17T14:52:58.907Z,3.84
2022-12-17T14:55:55.893Z,3.64
2022-12-17T14:58:25.392Z,3.85
2022-12-17T15:01:00.642Z,3.60
2022-12-17T15:03:34.148Z,3.36
2022-12-17T15:06:07.431Z,3.26
2022-12-17T15:08:43.333Z,3.10
2022-12-17T15:11:14.991Z,2.72
2022-12-17T15:13:44.751Z,2.85
2022-12-17T15:16:13.345Z,2.91
2022-12-17T15:18:40.803Z,2.90
2022-12-17T15:21:13.074Z,2.73
2022-12-17T15:23:43.384Z,2.65
2022-12-17T15:26:11.182Z,2.50
2022-12-17T15:28:38.376Z,2.35
2022-12-17T15:31:08.232Z,2.24
2022-12-17T15:33:35.125Z,2.09
2022-12-17T15:36:03.444Z,2.04
2022-12-17T15:38:30.394Z,2.08
2022-12-17T15:41:00.712Z,2.13
2022-12-17T15:43:27.514Z,2.13
2022-12-17T15:45:54.452Z,1.94
2022-12-17T15:48:23.336Z,2.05
2022-12-17T15:50:50.391Z,1.96
2022-12-17T15:53:17.347Z,1.89
2022-12-17T15:55:44.659Z,1.63
2022-12-17T15:58:14.095Z,1.40
2022-12-17T16:00:44.183Z,1.48
2022-12-17T16:03:14.067Z,1.47
2022-12-17T16:05:41.128Z,1.53
2022-12-17T16:08:07.959Z,1.41
2022-12-17T16:10:34.938Z,1.65
2022-12-17T16:13:03.897Z,1.57
2022-12-17T16:15:30.906Z,1.53
2022-12-17T16:17:57.850Z,1.39
2022-12-17T16:20:27.833Z,1.53
2022-12-17T16:22:56.968Z,1.44
2022-12-17T16:25:23.839Z,1.32
2022-12-17T16:27:50.809Z,1.41
2022-12-17T16:30:18.032Z,1.05
2022-12-17T16:32:44.931Z,1.23
2022-12-17T16:35:11.907Z,1.30
2022-12-17T16:37:38.746Z,1.16
2022-12-17T16:40:06.747Z,1.24
2022-12-17T16:42:36.222Z,1.09
2022-12-17T16:45:03.344Z,1.05
2022-12-17T16:47:30.237Z,1.15
2022-12-17T16:49:57.201Z,0.94
2022-12-17T16:52:24.241Z,1.11
2022-12-17T16:54:51.150Z,0.98
2022-12-17T16:57:18.220Z,0.98
2022-12-17T16:59:47.455Z,0.89
2022-12-17T17:02:18.585Z,1.02
2022-12-17T17:04:45.744Z,0.76
2022-12-17T17:07:12.715Z,0.64
2022-12-17T17:09:42.211Z,0.78
2022-12-17T17:12:11.925Z,0.70
2022-12-17T17:14:40.317Z,0.66
2022-12-17T17:17:07.304Z,0.51
2022-12-17T17:19:34.137Z,0.64
2022-12-17T17:22:00.964Z,0.53
2022-12-17T17:24:30.823Z,0.53
2022-12-17T17:27:00.304Z,0.61
2022-12-17T17:29:29.442Z,0.47
2022-12-17T17:32:16.554Z,0.42
2022-12-17T17:34:43.560Z,0.38
2022-12-17T17:37:13.518Z,0.23
2022-12-17T17:39:42.713Z,0.16
2022-12-17T17:42:09.985Z,0.10
2022-12-17T17:44:38.339Z,0.19
2022-12-17T17:47:05.514Z,0.21
2022-12-17T17:49:35.488Z,0.29
2022-12-17T17:52:11.346Z,0.19
2022-12-17T17:54:43.414Z,0.23
2022-12-17T17:57:10.624Z,0.48
2022-12-17T17:59:39.493Z,0.44
2022-12-17T18:02:11.121Z,0.35
2022-12-17T18:04:38.605Z,0.02
2022-12-17T18:09:55.574Z,0.11
2022-12-17T18:12:41.406Z,-0.07
2022-12-17T18:15:14.809Z,-0.01
2022-12-17T18:17:45.095Z,0.04
2022-12-17T18:20:13.192Z,0.18
2022-12-17T18:22:40.286Z,0.12
2022-12-17T18:25:07.807Z,-0.05
2022-12-17T18:27:35.079Z,-0.14
2022-12-17T18:30:02.352Z,-0.06
2022-12-17T18:32:29.503Z,-0.03
2022-12-17T18:34:56.742Z,0.13
2022-12-17T18:37:23.612Z,0.22
2022-12-17T18:39:53.596Z,0.24
2022-12-17T18:42:41.276Z,0.06
2022-12-17T18:45:12.251Z,-0.27
2022-12-17T18:47:40.000Z,-0.31
2022-12-17T18:50:07.831Z,-0.06
2022-12-17T18:52:39.890Z,0.08
2022-12-17T18:55:10.420Z,-0.17
2022-12-17T18:57:41.077Z,-0.17
2022-12-17T19:00:09.814Z,-0.12
2022-12-17T19:02:37.816Z,-0.05
2022-12-17T19:05:07.711Z,-0.02
2022-12-17T19:07:35.597Z,-0.19
2022-12-17T19:10:06.180Z,-0.31
2022-12-17T19:12:35.879Z,-0.27
2022-12-17T19:15:03.413Z,-0.28
2022-12-17T19:17:33.344Z,-0.50
2022-12-17T19:20:02.831Z,-0.42
2022-12-17T19:22:32.571Z,-0.45
2022-12-17T19:25:03.544Z,-0.46
2022-12-17T19:27:33.161Z,-0.70
2022-12-17T19:30:00.030Z,-0.74
2022-12-17T19:32:29.179Z,-0.63
2022-12-17T19:34:55.990Z,-0.70
2022-12-17T19:37:25.991Z,-0.86
2022-12-17T19:39:52.838Z,-0.85
2022-12-17T19:42:25.634Z,-0.70
2022-12-17T19:44:56.626Z,-0.69
2022-12-17T19:47:24.538Z,-0.58
2022-12-17T19:49:54.531Z,-0.83
2022-12-17T19:52:24.109Z,-0.70
2022-12-17T19:54:51.067Z,-0.62
2022-12-17T19:57:18.064Z,-0.81
2022-12-17T19:59:45.280Z,-0.73
2022-12-17T20:02:17.514Z,-0.88
2022-12-17T20:04:48.259Z,-0.76
2022-12-17T20:07:15.973Z,-0.73
2022-12-17T20:09:44.983Z,-0.70
2022-12-17T20:12:12.856Z,-0.58
2022-12-17T20:14:40.730Z,-0.56
2022-12-17T20:17:07.799Z,-0.52
2022-12-17T20:19:35.015Z,-0.72
2022-12-17T20:22:06.602Z,-0.84
2022-12-17T20:24:33.977Z,-0.84
2022-12-17T20:27:03.948Z,-0.83
2022-12-17T20:29:33.745Z,-1.00
2022-12-17T20:32:02.770Z,-1.05
2022-12-17T20:34:33.879Z,-0.98
2022-12-17T20:37:01.016Z,-0.82
2022-12-17T20:39:28.604Z,-0.76
2022-12-17T20:41:57.088Z,-0.76
2022-12-17T20:44:24.263Z,-0.79
2022-12-17T20:46:51.149Z,-0.72
2022-12-17T20:49:23.815Z,-0.99
2022-12-17T20:51:50.787Z,-1.01
2022-12-17T20:54:19.580Z,-0.95
2022-12-17T20:56:49.056Z,-1.11
2022-12-17T20:59:18.665Z,-1.06
2022-12-17T21:01:50.372Z,-1.17
2022-12-17T21:04:21.505Z,-1.18
2022-12-17T21:06:48.920Z,-1.10
2022-12-17T21:09:19.968Z,-1.29
2022-12-17T21:11:47.006Z,-1.19
2022-12-17T21:14:17.165Z,-1.56
2022-12-17T21:16:47.620Z,-1.47
2022-12-17T21:19:18.253Z,-1.18
2022-12-17T21:21:45.571Z,-1.40
2022-12-17T21:24:17.322Z,-1.35
2022-12-17T21:26:47.979Z,-1.38
2022-12-17T21:29:21.848Z,-1.18
2022-12-17T21:31:52.651Z,-1.36
2022-12-17T21:34:22.903Z,-1.34
2022-12-17T21:36:51.022Z,-1.29
2022-12-17T21:39:20.824Z,-1.26
2022-12-17T21:42:08.086Z,-1.43
2022-12-17T21:44:38.185Z,-1.22
2022-12-17T21:47:07.576Z,-1.14
2022-12-17T21:49:36.896Z,-1.40
2022-12-17T21:52:07.468Z,-1.47
2022-12-17T21:54:40.436Z,-1.54
2022-12-17T21:57:07.835Z,-1.52
2022-12-17T21:59:43.774Z,-1.58
2022-12-17T22:02:11.306Z,-1.49
2022-12-17T22:04:38.587Z,-1.68
2022-12-17T22:07:13.657Z,-1.39
2022-12-17T22:10:01.276Z,-1.65
2022-12-17T22:12:54.996Z,-1.46
2022-12-17T22:15:25.712Z,-1.49
2022-12-17T22:17:57.467Z,-1.67
2022-12-17T22:20:25.301Z,-1.82
2022-12-17T22:22:54.474Z,-1.82
2022-12-17T22:25:21.492Z,-2.12
2022-12-17T22:27:48.615Z,-2.07
2022-12-17T22:30:36.784Z,-1.93
2022-12-17T22:33:13.298Z,-1.93
2022-12-17T22:37:59.667Z,-2.13
2022-12-17T22:42:06.214Z,-2.40
2022-12-17T22:44:46.139Z,-2.41
2022-12-17T22:44:51.305Z,-2.31
2022-12-17T22:47:16.711Z,-2.24
2022-12-17T22:49:44.257Z,-2.13
2022-12-17T22:52:14.744Z,-2.24
2022-12-17T22:54:47.454Z,-2.26
2022-12-17T22:57:37.750Z,-2.06
2022-12-17T23:00:29.291Z,-2.12
2022-12-17T23:02:56.699Z,-2.32
2022-12-17T23:05:28.238Z,-2.19
2022-12-17T23:07:55.992Z,-2.20
2022-12-17T23:10:28.467Z,-2.10
2022-12-17T23:12:58.017Z,-2.21
2022-12-17T23:15:33.097Z,-2.12
2022-12-17T23:18:06.408Z,-2.10
2022-12-17T23:20:34.872Z,-2.14
2022-12-17T23:23:04.387Z,-2.13
2022-12-17T23:25:33.814Z,-2.22
2022-12-17T23:28:00.756Z,-2.19
2022-12-17T23:30:27.911Z,-2.32
2022-12-17T23:32:54.763Z,-2.11
2022-12-17T23:35:23.782Z,-2.03
2022-12-17T23:37:50.796Z,-2.22
2022-12-17T23:40:17.805Z,-2.16
2022-12-17T23:42:44.686Z,-2.14
2022-12-17T23:45:12.075Z,-2.15
2022-12-17T23:47:40.003Z,-2.11
2022-12-17T23:50:09.811Z,-2.18
2022-12-17T23:52:39.519Z,-2.34
2022-12-17T23:55:07.504Z,-2.30
2022-12-17T23:57:34.514Z,-2.23
